Time;durP1;ratioP1;P1;durP2;ratioP2;P2;SDS_P1;SDS_P2;PMS_P1;PMS_P2;Temp;Humidity;BMP_temperature;BMP_pressure;BME280_temperature;BME280_humidity;BME280_pressure;Samples;Min_cycle;Max_cycle;Signal;HPM_P1;HPM_P2
2023/09/09 00:00:52;;;;;;;4.10;2.80;;;25.30;66.80;;;;;;4956925;28;20042;-78
2023/09/09 00:03:19;;;;;;;4.60;3.35;;;25.30;66.70;;;;;;4957740;28;20074;-77
2023/09/09 00:05:45;;;;;;;4.47;2.78;;;25.30;66.60;;;;;;4958299;28;20503;-77
2023/09/09 00:08:11;;;;;;;4.95;3.00;;;25.30;67.00;;;;;;4959166;28;20062;-77
2023/09/09 00:10:37;;;;;;;6.57;3.13;;;25.30;67.00;;;;;;4962338;28;20066;-77
2023/09/09 00:13:04;;;;;;;4.00;3.10;;;25.30;67.10;;;;;;4965587;28;20054;-77
2023/09/09 00:15:31;;;;;;;5.40;3.33;;;25.30;67.40;;;;;;4958190;28;20035;-77
2023/09/09 00:17:57;;;;;;;4.28;2.92;;;25.30;67.00;;;;;;4958794;28;20047;-76
2023/09/09 00:20:33;;;;;;;6.55;3.45;;;25.30;66.70;;;;;;4960940;28;20035;-76
2023/09/09 00:23:02;;;;;;;4.60;3.00;;;25.20;66.70;;;;;;4957662;28;20031;-76
2023/09/09 00:25:29;;;;;;;4.55;3.60;;;25.20;66.90;;;;;;4958180;28;20066;-76
2023/09/09 00:27:55;;;;;;;9.70;3.35;;;25.20;67.00;;;;;;4959423;28;20027;-76
2023/09/09 00:30:20;;;;;;;3.22;2.55;;;25.10;67.00;;;;;;4960665;28;20039;-77
2023/09/09 00:32:46;;;;;;;6.78;3.58;;;25.10;66.90;;;;;;4961625;28;20063;-79
2023/09/09 00:35:11;;;;;;;4.22;3.17;;;25.10;67.20;;;;;;4961244;28;20039;-78
2023/09/09 00:37:37;;;;;;;5.13;3.08;;;25.00;67.10;;;;;;4961845;28;20050;-77
2023/09/09 00:40:04;;;;;;;5.10;2.88;;;25.00;67.10;;;;;;4960693;28;20031;-77
2023/09/09 00:42:30;;;;;;;4.78;3.40;;;24.90;67.30;;;;;;4958275;28;20118;-77
2023/09/09 00:44:55;;;;;;;5.43;3.38;;;24.90;67.50;;;;;;4958544;28;20127;-77
2023/09/09 00:47:24;;;;;;;3.92;2.75;;;24.90;67.20;;;;;;4958461;28;20147;-77
2023/09/09 00:49:50;;;;;;;9.77;3.30;;;24.90;67.30;;;;;;4957692;29;20039;-77
2023/09/09 00:52:16;;;;;;;3.53;2.80;;;24.90;67.30;;;;;;4959384;28;20040;-77
2023/09/09 00:54:41;;;;;;;12.70;3.38;;;25.00;67.40;;;;;;4952475;28;20438;-77
2023/09/09 00:57:08;;;;;;;6.30;3.17;;;25.00;67.20;;;;;;4958352;28;20481;-76
2023/09/09 00:59:33;;;;;;;7.43;3.10;;;25.00;67.10;;;;;;4958653;28;20507;-77
2023/09/09 01:01:59;;;;;;;3.45;2.63;;;25.10;67.20;;;;;;4956446;28;20063;-77
2023/09/09 01:04:25;;;;;;;5.32;3.17;;;25.00;67.00;;;;;;4957915;28;20488;-76
2023/09/09 01:06:52;;;;;;;5.18;3.03;;;25.00;67.20;;;;;;4970085;28;20045;-77
2023/09/09 01:09:18;;;;;;;10.85;3.28;;;24.90;67.20;;;;;;4962903;28;20126;-76
2023/09/09 01:11:44;;;;;;;3.45;2.75;;;24.90;67.30;;;;;;4957094;29;20047;-77
2023/09/09 01:14:10;;;;;;;5.25;2.97;;;24.90;67.20;;;;;;4958200;28;20051;-77
2023/09/09 01:16:37;;;;;;;5.22;2.90;;;24.90;67.30;;;;;;4967307;28;20077;-78
2023/09/09 01:19:04;;;;;;;8.50;3.20;;;24.90;67.40;;;;;;4958631;28;20043;-79
2023/09/09 01:21:32;;;;;;;3.40;3.00;;;24.90;67.60;;;;;;4957251;28;20035;-79
2023/09/09 01:23:58;;;;;;;6.13;3.00;;;25.00;67.70;;;;;;4956565;28;20083;-77
2023/09/09 01:26:23;;;;;;;5.05;3.22;;;24.90;67.30;;;;;;4956710;28;20503;-77
2023/09/09 01:28:49;;;;;;;4.80;3.22;;;24.90;67.50;;;;;;4956588;28;20167;-77
2023/09/09 01:31:15;;;;;;;5.30;2.92;;;25.00;67.60;;;;;;4958696;28;20125;-77
2023/09/09 01:33:41;;;;;;;6.07;3.30;;;25.00;67.30;;;;;;4956217;28;20089;-77
2023/09/09 01:36:06;;;;;;;3.67;2.78;;;25.00;67.30;;;;;;4956703;28;20109;-76
2023/09/09 01:38:34;;;;;;;4.45;2.85;;;25.00;67.30;;;;;;4956484;28;20066;-77
2023/09/09 01:41:00;;;;;;;5.10;3.80;;;25.00;67.30;;;;;;4960438;28;20484;-76
2023/09/09 01:43:26;;;;;;;4.70;3.30;;;25.00;67.10;;;;;;4946121;28;20052;-77
2023/09/09 01:45:52;;;;;;;4.78;2.75;;;25.00;67.20;;;;;;4956560;28;20047;-78
2023/09/09 01:48:17;;;;;;;4.43;3.40;;;25.00;67.20;;;;;;4956483;28;20427;-77
2023/09/09 01:50:46;;;;;;;3.30;2.60;;;25.00;67.20;;;;;;4957418;28;20403;-77
2023/09/09 01:53:12;;;;;;;5.90;3.08;;;25.00;67.10;;;;;;4957337;28;20057;-77
2023/09/09 01:55:37;;;;;;;4.63;2.63;;;24.90;67.10;;;;;;4956955;28;21796;-77
2023/09/09 01:58:03;;;;;;;4.60;3.15;;;25.00;67.20;;;;;;4955154;28;20126;-77
2023/09/09 02:00:30;;;;;;;3.60;3.00;;;24.90;67.30;;;;;;4965018;28;20061;-77
2023/09/09 02:02:56;;;;;;;5.85;3.78;;;24.90;67.30;;;;;;4959545;28;20031;-77
2023/09/09 02:05:22;;;;;;;3.65;2.90;;;24.90;67.30;;;;;;4957039;28;20126;-77
2023/09/09 02:07:47;;;;;;;3.83;3.03;;;24.90;67.40;;;;;;4955089;28;20128;-77
2023/09/09 02:10:13;;;;;;;3.63;2.90;;;24.90;67.30;;;;;;4968513;28;20467;-77
2023/09/09 02:12:41;;;;;;;6.13;3.10;;;24.90;67.30;;;;;;4960522;28;20059;-77
2023/09/09 02:15:09;;;;;;;4.00;2.90;;;24.90;67.60;;;;;;4956187;28;20392;-78
2023/09/09 02:17:36;;;;;;;5.53;2.85;;;24.90;67.50;;;;;;4955584;29;20032;-78
2023/09/09 02:20:05;;;;;;;3.30;2.70;;;24.90;68.10;;;;;;4960103;28;20411;-77
2023/09/09 02:22:30;;;;;;;6.10;2.75;;;24.90;67.30;;;;;;4963591;28;20044;-79
2023/09/09 02:24:56;;;;;;;4.28;3.10;;;24.80;67.20;;;;;;4956311;28;20039;-79
2023/09/09 02:27:23;;;;;;;3.72;2.80;;;24.80;67.20;;;;;;4955152;29;20126;-79
2023/09/09 02:29:49;;;;;;;3.70;3.00;;;24.80;67.30;;;;;;4957962;28;20039;-78
2023/09/09 02:32:16;;;;;;;4.70;2.50;;;24.80;67.30;;;;;;4965420;28;20110;-79
2023/09/09 02:34:41;;;;;;;8.57;3.17;;;24.80;67.30;;;;;;4954832;28;20051;-79
2023/09/09 02:37:29;;;;;;;6.38;3.38;;;24.80;67.70;;;;;;4956510;28;20043;-80
2023/09/09 02:39:54;;;;;;;3.67;2.80;;;24.70;67.80;;;;;;4957905;28;20022;-77
2023/09/09 02:42:22;;;;;;;3.60;3.00;;;24.80;67.70;;;;;;4970410;28;20408;-77
2023/09/09 02:44:51;;;;;;;3.78;3.05;;;24.70;67.70;;;;;;4957978;28;20046;-77
2023/09/09 02:47:18;;;;;;;4.55;2.97;;;24.70;67.60;;;;;;4959216;28;20511;-79
2023/09/09 02:49:43;;;;;;;3.55;2.90;;;24.70;67.60;;;;;;4955370;28;20085;-78
2023/09/09 02:52:10;;;;;;;4.18;2.70;;;24.70;67.60;;;;;;4956258;28;20039;-78
2023/09/09 02:54:37;;;;;;;5.20;3.20;;;24.70;67.60;;;;;;4954316;28;20528;-78
2023/09/09 02:57:03;;;;;;;4.40;2.90;;;24.60;67.60;;;;;;4955851;28;20412;-78
2023/09/09 02:59:31;;;;;;;7.38;3.10;;;24.50;67.80;;;;;;4955327;29;20048;-78
2023/09/09 03:01:57;;;;;;;5.25;3.00;;;24.40;68.00;;;;;;4955392;28;20117;-78
2023/09/09 03:04:22;;;;;;;4.38;3.10;;;24.30;68.20;;;;;;4954480;28;20079;-79
2023/09/09 03:06:48;;;;;;;4.25;2.88;;;24.30;68.30;;;;;;4955841;28;20059;-79
2023/09/09 03:09:14;;;;;;;9.85;2.90;;;24.20;68.60;;;;;;4956066;28;20050;-78
2023/09/09 03:11:40;;;;;;;4.45;2.65;;;24.20;68.70;;;;;;4955090;28;20045;-78
2023/09/09 03:14:06;;;;;;;2.92;2.58;;;24.20;68.80;;;;;;4955269;28;20043;-77
2023/09/09 03:16:31;;;;;;;4.03;3.03;;;24.10;69.00;;;;;;4956296;28;20038;-78
2023/09/09 03:18:57;;;;;;;3.97;3.55;;;24.10;68.90;;;;;;4955659;28;20043;-78
2023/09/09 03:21:23;;;;;;;3.33;2.80;;;24.00;69.10;;;;;;4954777;28;20042;-79
2023/09/09 03:23:49;;;;;;;4.38;3.03;;;24.00;69.10;;;;;;4962654;28;20118;-79
2023/09/09 03:26:19;;;;;;;5.43;2.75;;;24.00;69.10;;;;;;4954660;28;20119;-79
2023/09/09 03:28:48;;;;;;;4.40;3.20;;;24.00;69.10;;;;;;4956591;28;20098;-77
2023/09/09 03:31:14;;;;;;;2.97;2.30;;;24.00;69.10;;;;;;4955112;28;20408;-77
2023/09/09 03:33:40;;;;;;;5.60;3.15;;;24.00;69.10;;;;;;4957727;28;20035;-77
2023/09/09 03:36:07;;;;;;;4.40;2.70;;;24.00;69.30;;;;;;4954524;28;20035;-77
2023/09/09 03:38:33;;;;;;;5.45;3.00;;;24.00;69.30;;;;;;4958349;28;20411;-79
2023/09/09 03:40:59;;;;;;;4.60;3.65;;;23.90;69.40;;;;;;4957928;28;20383;-78
2023/09/09 03:43:25;;;;;;;4.35;2.40;;;23.90;69.50;;;;;;4954519;28;20126;-79
2023/09/09 03:45:56;;;;;;;4.63;2.50;;;23.90;69.30;;;;;;4954306;28;20075;-79
2023/09/09 03:48:23;;;;;;;8.63;2.80;;;23.90;69.40;;;;;;4956701;28;20043;-80
2023/09/09 03:50:49;;;;;;;4.40;3.13;;;23.90;69.70;;;;;;4959774;28;20039;-80
2023/09/09 03:53:15;;;;;;;3.28;2.90;;;23.90;69.80;;;;;;4958295;28;20384;-77
2023/09/09 03:55:41;;;;;;;5.47;3.00;;;23.80;70.20;;;;;;4963269;28;20031;-77
2023/09/09 03:58:06;;;;;;;7.88;3.40;;;23.80;70.50;;;;;;4954577;28;20064;-77
2023/09/09 04:00:33;;;;;;;3.92;2.70;;;23.70;70.50;;;;;;4954197;29;20506;-79
2023/09/09 04:02:59;;;;;;;4.47;2.47;;;23.70;70.40;;;;;;4954329;28;20467;-78
2023/09/09 04:05:25;;;;;;;4.90;3.47;;;23.60;70.80;;;;;;4956318;28;20050;-78
2023/09/09 04:07:51;;;;;;;4.55;2.75;;;23.60;71.10;;;;;;4953924;28;20055;-78
2023/09/09 04:10:17;;;;;;;5.40;2.72;;;23.50;71.10;;;;;;4957828;28;20039;-78
2023/09/09 04:12:43;;;;;;;3.83;3.00;;;23.50;71.20;;;;;;4955214;28;20028;-77
2023/09/09 04:15:10;;;;;;;6.13;3.05;;;23.50;71.20;;;;;;4953963;28;20203;-78
2023/09/09 04:17:35;;;;;;;3.65;3.03;;;23.50;71.20;;;;;;4953097;29;20459;-77
2023/09/09 04:20:02;;;;;;;6.93;3.50;;;23.50;71.50;;;;;;4956904;28;20094;-77
2023/09/09 04:22:29;;;;;;;8.40;3.20;;;23.40;71.60;;;;;;4963592;28;20035;-78
2023/09/09 04:24:54;;;;;;;6.03;3.08;;;23.40;71.50;;;;;;4961056;28;20054;-78
2023/09/09 04:27:20;;;;;;;6.18;3.53;;;23.40;71.70;;;;;;4955931;28;20098;-78
2023/09/09 04:29:46;;;;;;;4.70;3.65;;;23.40;71.70;;;;;;4954722;29;20534;-78
2023/09/09 04:32:15;;;;;;;8.07;3.60;;;23.40;72.10;;;;;;4954396;29;20035;-78
2023/09/09 04:34:41;;;;;;;5.03;3.10;;;23.40;72.00;;;;;;4953502;28;20122;-79
2023/09/09 04:37:07;;;;;;;3.58;2.95;;;23.30;71.80;;;;;;4954320;28;20100;-79
2023/09/09 04:39:33;;;;;;;5.18;3.10;;;23.30;71.90;;;;;;4957474;28;20035;-78
2023/09/09 04:41:59;;;;;;;4.32;2.72;;;23.30;72.10;;;;;;4958718;28;20107;-78
2023/09/09 04:44:24;;;;;;;3.30;3.00;;;23.20;72.30;;;;;;4957857;28;20126;-77
2023/09/09 04:46:50;;;;;;;5.57;3.35;;;23.20;72.40;;;;;;4958415;28;20059;-79
2023/09/09 04:49:17;;;;;;;4.93;2.95;;;23.20;72.70;;;;;;4960532;28;20039;-80
2023/09/09 04:51:43;;;;;;;4.05;3.58;;;23.20;72.50;;;;;;4958814;28;20031;-79
2023/09/09 04:54:09;;;;;;;6.18;3.30;;;23.20;72.70;;;;;;4956805;29;20130;-80
2023/09/09 04:56:35;;;;;;;4.68;2.72;;;23.20;72.50;;;;;;4958970;28;20102;-81
2023/09/09 04:59:00;;;;;;;2.97;2.60;;;23.20;72.40;;;;;;4958748;28;20047;-79
2023/09/09 05:01:26;;;;;;;7.97;4.03;;;23.20;72.70;;;;;;4955621;28;20070;-79
2023/09/09 05:03:52;;;;;;;6.72;3.17;;;23.10;73.00;;;;;;4958167;28;20428;-80
2023/09/09 05:06:17;;;;;;;4.85;3.70;;;23.10;72.60;;;;;;4957622;28;20035;-80
2023/09/09 05:08:43;;;;;;;11.68;3.08;;;23.20;72.70;;;;;;4961142;28;20097;-80
2023/09/09 05:11:10;;;;;;;5.05;3.72;;;23.20;72.50;;;;;;4969196;28;20043;-79
2023/09/09 05:13:35;;;;;;;3.53;2.92;;;23.20;72.70;;;;;;4955860;28;20047;-79
2023/09/09 05:16:01;;;;;;;4.40;3.42;;;23.20;72.60;;;;;;4959090;28;20094;-79
2023/09/09 05:18:27;;;;;;;5.18;3.58;;;23.20;72.60;;;;;;4957993;28;20043;-78
2023/09/09 05:20:52;;;;;;;4.35;3.50;;;23.20;72.60;;;;;;4958153;28;20432;-77
2023/09/09 05:23:18;;;;;;;4.28;3.10;;;23.20;72.50;;;;;;4955298;28;20039;-85
2023/09/09 05:25:44;;;;;;;6.68;4.00;;;23.20;72.50;;;;;;4956090;28;20042;-77
2023/09/09 05:28:09;;;;;;;3.92;2.50;;;23.20;72.70;;;;;;4956870;28;20047;-78
2023/09/09 05:30:40;;;;;;;6.90;3.13;;;23.20;72.60;;;;;;4957680;28;20547;-79
2023/09/09 05:33:05;;;;;;;4.22;2.70;;;23.10;73.00;;;;;;4955946;28;20040;-80
2023/09/09 05:35:31;;;;;;;4.38;3.28;;;23.10;73.10;;;;;;4956693;28;20107;-80
2023/09/09 05:37:57;;;;;;;4.40;2.97;;;23.20;73.20;;;;;;4956525;28;20106;-80
2023/09/09 05:40:23;;;;;;;3.53;2.88;;;23.20;72.90;;;;;;4956826;28;20049;-77
2023/09/09 05:42:48;;;;;;;5.72;3.20;;;23.40;72.80;;;;;;4955156;28;20039;-80
2023/09/09 05:45:14;;;;;;;3.97;2.83;;;23.50;72.90;;;;;;4955926;29;20047;-79
2023/09/09 05:47:42;;;;;;;3.15;2.85;;;23.50;72.50;;;;;;4940705;28;20067;-79
2023/09/09 05:50:08;;;;;;;6.22;3.30;;;23.60;72.30;;;;;;4957285;28;20452;-79
2023/09/09 05:52:34;;;;;;;3.70;2.92;;;23.60;72.40;;;;;;4955663;28;20062;-79
2023/09/09 05:55:00;;;;;;;4.32;2.95;;;23.60;72.20;;;;;;4956297;28;20491;-84
2023/09/09 05:57:25;;;;;;;4.13;2.67;;;23.70;72.80;;;;;;4978673;23;20062;-85
2023/09/09 05:59:51;;;;;;;7.13;3.30;;;23.70;72.70;;;;;;4975119;28;20476;-84
2023/09/09 06:02:17;;;;;;;4.80;2.95;;;23.70;72.10;;;;;;4980178;28;20062;-79
2023/09/09 06:04:42;;;;;;;5.70;3.20;;;23.70;72.10;;;;;;4985307;28;20586;-78
2023/09/09 06:07:09;;;;;;;4.85;3.15;;;23.70;72.00;;;;;;4983518;28;20056;-78
2023/09/09 06:09:34;;;;;;;5.40;2.90;;;23.70;71.90;;;;;;4983971;28;20461;-83
2023/09/09 06:12:02;;;;;;;4.40;2.88;;;23.80;72.10;;;;;;4981393;28;20069;-87
2023/09/09 06:14:27;;;;;;;3.67;2.70;;;23.80;72.00;;;;;;4959409;28;20054;-87
2023/09/09 06:16:53;;;;;;;5.68;3.05;;;23.80;72.00;;;;;;4960762;28;20039;-86
2023/09/09 06:19:19;;;;;;;4.43;2.80;;;23.80;71.90;;;;;;4976082;28;20035;-86
2023/09/09 06:21:44;;;;;;;5.88;2.83;;;23.90;71.90;;;;;;4969803;28;20034;-86
2023/09/09 06:24:12;;;;;;;5.13;2.72;;;23.90;71.80;;;;;;4988306;28;20041;-86
2023/09/09 06:26:38;;;;;;;5.55;3.15;;;23.90;71.60;;;;;;4987282;28;20388;-87
2023/09/09 06:29:04;;;;;;;4.82;2.70;;;23.90;71.70;;;;;;4976665;28;20041;-87
2023/09/09 06:31:30;;;;;;;4.28;3.40;;;23.90;71.70;;;;;;4974885;28;20554;-87
2023/09/09 06:33:56;;;;;;;4.60;2.85;;;23.90;71.80;;;;;;4977683;28;20043;-87
2023/09/09 06:36:22;;;;;;;5.13;2.90;;;23.90;72.00;;;;;;4975957;28;20029;-87
2023/09/09 06:38:49;;;;;;;3.90;2.97;;;24.00;72.00;;;;;;4978225;28;20085;-88
2023/09/09 06:41:15;;;;;;;3.22;2.63;;;24.00;72.10;;;;;;4979120;28;20035;-88
2023/09/09 06:43:42;;;;;;;8.48;2.58;;;24.00;72.00;;;;;;4966336;28;20046;-88
2023/09/09 06:46:08;;;;;;;4.80;2.97;;;24.00;71.80;;;;;;4994818;28;20549;-88
2023/09/09 06:48:33;;;;;;;6.55;3.05;;;24.10;71.70;;;;;;4987897;28;20069;-88
2023/09/09 06:50:59;;;;;;;3.00;2.38;;;24.10;71.70;;;;;;4980757;28;20045;-88
2023/09/09 06:53:25;;;;;;;4.00;2.65;;;24.10;71.70;;;;;;4978790;28;20038;-87
2023/09/09 06:55:52;;;;;;;6.70;2.70;;;24.20;72.00;;;;;;4984112;28;20031;-86
2023/09/09 06:58:17;;;;;;;5.05;2.78;;;24.20;71.80;;;;;;4976727;28;20039;-88
2023/09/09 07:00:50;;;;;;;5.25;3.35;;;24.30;71.80;;;;;;4973947;28;20045;-88
2023/09/09 07:03:16;;;;;;;4.25;3.00;;;24.40;71.70;;;;;;4961766;28;20046;-88
2023/09/09 07:05:41;;;;;;;7.38;3.00;;;24.50;71.70;;;;;;4979142;28;20034;-88
2023/09/09 07:08:07;;;;;;;3.97;2.70;;;24.50;71.80;;;;;;4979894;28;20427;-88
2023/09/09 07:10:33;;;;;;;5.13;2.97;;;24.60;71.70;;;;;;4983762;28;20045;-88
2023/09/09 07:12:58;;;;;;;5.50;2.72;;;24.70;71.60;;;;;;4974086;28;20102;-87
2023/09/09 07:15:24;;;;;;;3.13;2.53;;;24.80;71.20;;;;;;4975173;28;20046;-89
2023/09/09 07:17:50;;;;;;;3.90;2.63;;;24.80;70.80;;;;;;4975118;28;20034;-88
2023/09/09 07:20:18;;;;;;;3.10;2.72;;;24.90;70.70;;;;;;4987024;28;20125;-77
2023/09/09 07:22:44;;;;;;;4.45;2.72;;;25.00;70.60;;;;;;4978194;28;20115;-78
2023/09/09 07:25:09;;;;;;;4.97;2.50;;;25.00;70.40;;;;;;4974685;28;20117;-78
2023/09/09 07:27:35;;;;;;;3.30;2.95;;;25.10;70.30;;;;;;4974705;28;20371;-78
2023/09/09 07:30:01;;;;;;;3.40;2.83;;;25.10;70.00;;;;;;4974621;28;20070;-78
2023/09/09 07:32:26;;;;;;;3.20;2.72;;;25.30;69.90;;;;;;4975776;28;20484;-78
2023/09/09 07:34:52;;;;;;;2.92;2.63;;;25.40;69.60;;;;;;4975709;28;20039;-77
2023/09/09 07:37:33;;;;;;;4.18;2.72;;;25.40;69.30;;;;;;4974436;28;20049;-77
2023/09/09 07:40:00;;;;;;;3.33;2.63;;;25.50;69.10;;;;;;4972940;28;20039;-78
2023/09/09 07:42:26;;;;;;;3.28;2.97;;;25.60;69.30;;;;;;4961476;28;20059;-78
2023/09/09 07:44:53;;;;;;;5.78;3.00;;;25.70;69.30;;;;;;4971619;28;20073;-89
2023/09/09 07:47:20;;;;;;;4.18;3.75;;;25.80;69.00;;;;;;4972714;28;20039;-88
2023/09/09 07:49:46;;;;;;;4.20;3.22;;;25.90;68.30;;;;;;4973525;28;20463;-89
2023/09/09 07:52:12;;;;;;;6.97;2.97;;;26.00;68.30;;;;;;4974431;28;20482;-88
2023/09/09 07:54:38;;;;;;;4.55;3.70;;;26.10;68.00;;;;;;4972313;28;20081;-78
2023/09/09 07:57:04;;;;;;;11.27;4.97;;;26.20;68.50;;;;;;4973167;28;20043;-88
2023/09/09 07:59:29;;;;;;;5.30;3.80;;;26.30;68.10;;;;;;4973219;28;20043;-88
2023/09/09 08:01:56;;;;;;;5.57;3.53;;;26.30;68.10;;;;;;4970704;28;20031;-88
2023/09/09 08:04:22;;;;;;;4.93;3.70;;;26.40;67.90;;;;;;4971756;28;20046;-78
2023/09/09 08:06:50;;;;;;;5.35;3.55;;;26.50;68.00;;;;;;4970096;28;20518;-88
2023/09/09 08:09:16;;;;;;;4.90;3.42;;;26.60;67.10;;;;;;4972441;28;20046;-78
2023/09/09 08:11:41;;;;;;;5.82;3.67;;;26.60;67.10;;;;;;4971707;28;20047;-88
2023/09/09 08:14:07;;;;;;;6.07;3.00;;;26.70;67.20;;;;;;4975383;28;20093;-78
2023/09/09 08:16:32;;;;;;;4.43;3.05;;;26.80;67.10;;;;;;4976724;28;20429;-78
2023/09/09 08:18:59;;;;;;;4.05;2.72;;;26.90;67.30;;;;;;4972166;28;20471;-78
2023/09/09 08:21:25;;;;;;;3.22;2.92;;;27.00;66.80;;;;;;4973649;28;20395;-78
2023/09/09 08:23:52;;;;;;;3.88;2.55;;;27.10;66.40;;;;;;4975770;28;20043;-78
2023/09/09 08:26:18;;;;;;;5.18;2.88;;;27.30;66.00;;;;;;4975441;28;20121;-78
2023/09/09 08:28:43;;;;;;;5.43;2.65;;;27.30;65.70;;;;;;4976514;28;20122;-78
2023/09/09 08:31:09;;;;;;;3.33;2.78;;;27.40;65.40;;;;;;4974105;28;20039;-78
2023/09/09 08:33:35;;;;;;;5.15;3.10;;;27.60;65.20;;;;;;4977292;28;20047;-88
2023/09/09 08:36:05;;;;;;;5.32;2.95;;;27.60;64.50;;;;;;4983376;28;20031;-88
2023/09/09 08:38:31;;;;;;;5.43;3.03;;;27.70;64.60;;;;;;4972849;28;20043;-88
2023/09/09 08:41:11;;;;;;;5.57;3.40;;;27.80;64.70;;;;;;4964953;28;20035;-78
2023/09/09 08:43:55;;;;;;;5.28;3.25;;;27.90;64.10;;;;;;4966034;28;20047;-77
2023/09/09 08:46:22;;;;;;;3.03;2.65;;;28.00;64.10;;;;;;4980732;28;20051;-78
2023/09/09 08:48:51;;;;;;;6.32;2.47;;;28.10;63.70;;;;;;4988115;28;20039;-87
2023/09/09 08:51:34;;;;;;;3.03;2.38;;;28.10;63.80;;;;;;4988070;28;20038;-87
2023/09/09 08:54:01;;;;;;;3.33;2.53;;;28.20;63.60;;;;;;4958772;29;20053;-78
2023/09/09 08:56:27;;;;;;;6.35;2.50;;;28.40;63.60;;;;;;4958007;28;20050;-88
2023/09/09 08:58:53;;;;;;;6.43;2.95;;;28.50;63.00;;;;;;4961694;28;20031;-86
2023/09/09 09:01:21;;;;;;;3.47;2.55;;;28.50;62.30;;;;;;4979082;28;20375;-78
2023/09/09 09:03:49;;;;;;;2.50;2.30;;;28.60;62.40;;;;;;4980859;28;20531;-87
2023/09/09 09:06:15;;;;;;;3.40;2.63;;;28.80;61.70;;;;;;4976987;28;20043;-87
2023/09/09 09:08:42;;;;;;;3.47;2.42;;;28.90;61.80;;;;;;4958008;28;20415;-87
2023/09/09 09:11:13;;;;;;;5.57;2.60;;;29.00;61.70;;;;;;4976704;28;20046;-84
2023/09/09 09:13:38;;;;;;;3.83;2.63;;;29.10;60.50;;;;;;4976231;28;20057;-78
2023/09/09 09:16:04;;;;;;;3.28;2.47;;;29.10;59.60;;;;;;4975781;28;20038;-78
2023/09/09 09:18:30;;;;;;;3.30;2.83;;;29.20;60.20;;;;;;4975892;28;20047;-78
2023/09/09 09:21:06;;;;;;;3.88;2.70;;;29.20;60.00;;;;;;4995909;28;20109;-78
2023/09/09 09:23:32;;;;;;;3.00;2.63;;;29.40;59.60;;;;;;4976176;28;20042;-79
2023/09/09 09:26:00;;;;;;;3.60;2.50;;;29.50;60.40;;;;;;4995744;28;20113;-80
2023/09/09 09:28:28;;;;;;;2.78;2.25;;;29.60;60.20;;;;;;4996041;28;20049;-80
2023/09/09 09:30:54;;;;;;;3.10;2.55;;;29.70;60.00;;;;;;4995984;28;20034;-79
2023/09/09 09:33:25;;;;;;;7.45;2.95;;;29.80;60.30;;;;;;4995960;28;20038;-79
2023/09/09 09:35:51;;;;;;;7.22;2.65;;;29.90;59.20;;;;;;4995909;28;20070;-79
2023/09/09 09:38:18;;;;;;;3.13;2.63;;;30.00;59.00;;;;;;4995832;28;20038;-78
2023/09/09 09:40:44;;;;;;;4.72;2.92;;;30.00;58.90;;;;;;4995125;28;20031;-78
2023/09/09 09:43:20;;;;;;;2.40;2.08;;;30.20;59.40;;;;;;4995302;28;20049;-78
2023/09/09 09:45:46;;;;;;;4.07;2.58;;;30.30;58.80;;;;;;4995630;28;20497;-78
2023/09/09 09:48:27;;;;;;;5.22;2.40;;;30.40;58.80;;;;;;4995598;28;20097;-78
2023/09/09 09:50:53;;;;;;;3.92;2.95;;;30.60;57.80;;;;;;4980511;28;20035;-79
2023/09/09 09:53:19;;;;;;;4.45;2.97;;;30.70;57.90;;;;;;4975921;28;20031;-78
2023/09/09 09:55:45;;;;;;;2.50;2.30;;;30.80;56.90;;;;;;4976294;28;20114;-78
2023/09/09 09:58:13;;;;;;;6.50;2.70;;;30.90;56.90;;;;;;4975927;28;20046;-79
2023/09/09 10:00:39;;;;;;;3.65;2.60;;;31.10;56.70;;;;;;4975909;28;20030;-79
2023/09/09 10:03:06;;;;;;;3.80;2.60;;;31.20;57.00;;;;;;4974399;28;20050;-78
2023/09/09 10:05:33;;;;;;;2.50;2.30;;;31.30;56.60;;;;;;4974375;28;20035;-78
2023/09/09 10:08:16;;;;;;;4.00;2.60;;;31.50;56.70;;;;;;4979625;28;20050;-78
2023/09/09 10:10:52;;;;;;;5.60;2.60;;;31.50;55.30;;;;;;4954730;28;20063;-78
2023/09/09 10:13:37;;;;;;;6.30;2.97;;;31.70;56.10;;;;;;4969492;28;20403;-87
2023/09/09 10:16:06;;;;;;;4.28;2.33;;;31.70;54.80;;;;;;4982188;28;20398;-86
2023/09/09 10:18:32;;;;;;;3.73;2.53;;;31.70;55.20;;;;;;4994832;28;20038;-86
2023/09/09 10:20:59;;;;;;;5.85;2.60;;;31.80;55.00;;;;;;4978758;28;20345;-85
2023/09/09 10:23:27;;;;;;;6.50;2.40;;;31.90;54.10;;;;;;4990154;28;20037;-81
2023/09/09 10:25:54;;;;;;;3.75;3.00;;;32.00;55.30;;;;;;4980665;28;20045;-85
2023/09/09 10:28:25;;;;;;;4.45;2.38;;;32.10;54.50;;;;;;4975077;28;20030;-85
2023/09/09 10:30:53;;;;;;;4.80;2.58;;;32.20;54.00;;;;;;4975669;28;20039;-85
2023/09/09 10:33:20;;;;;;;6.15;2.70;;;32.30;52.70;;;;;;4972058;28;20042;-86
2023/09/09 10:35:50;;;;;;;4.30;2.78;;;32.40;53.10;;;;;;4973893;28;20043;-84
2023/09/09 10:38:17;;;;;;;3.78;2.72;;;32.50;53.10;;;;;;4974054;28;20494;-84
2023/09/09 10:40:46;;;;;;;4.18;2.92;;;32.60;52.90;;;;;;4973429;28;20039;-85
2023/09/09 10:43:12;;;;;;;6.78;2.70;;;32.70;52.90;;;;;;4973389;28;20031;-85
2023/09/09 10:45:43;;;;;;;3.90;2.47;;;32.90;52.10;;;;;;4974598;28;20073;-84
2023/09/09 10:48:12;;;;;;;4.32;2.90;;;32.90;52.30;;;;;;4972961;28;20073;-84
2023/09/09 10:50:52;;;;;;;9.68;3.10;;;33.00;52.70;;;;;;4970651;28;20043;-85
2023/09/09 10:53:28;;;;;;;5.53;2.83;;;33.20;51.20;;;;;;4987669;28;20065;-84
2023/09/09 10:55:56;;;;;;;2.83;2.55;;;33.30;50.30;;;;;;4985678;28;20039;-84
2023/09/09 10:58:33;;;;;;;3.10;2.70;;;33.40;50.80;;;;;;4982818;28;20069;-84
2023/09/09 11:00:59;;;;;;;4.97;2.50;;;33.60;50.30;;;;;;4973696;28;20042;-84
2023/09/09 11:03:40;;;;;;;4.55;2.55;;;33.70;50.50;;;;;;4985676;28;20419;-84
2023/09/09 11:06:11;;;;;;;3.63;2.80;;;33.90;49.10;;;;;;4974208;28;20034;-86
2023/09/09 11:08:47;;;;;;;4.55;2.45;;;34.00;50.00;;;;;;4973090;28;20035;-88
2023/09/09 11:11:17;;;;;;;3.85;2.30;;;34.10;49.00;;;;;;4973822;28;20106;-87
2023/09/09 11:13:50;;;;;;;2.95;2.38;;;34.10;50.20;;;;;;4973430;28;20082;-88
2023/09/09 11:16:31;;;;;;;6.35;2.65;;;34.30;50.50;;;;;;4971929;28;20045;-84
2023/09/09 11:18:59;;;;;;;6.95;3.10;;;34.40;50.80;;;;;;4972391;28;20029;-85
2023/09/09 11:21:26;;;;;;;6.00;2.90;;;34.70;51.30;;;;;;4972859;28;20033;-86
2023/09/09 11:23:52;;;;;;;5.75;2.50;;;34.80;51.40;;;;;;4972879;28;20050;-86
2023/09/09 11:26:19;;;;;;;2.85;2.58;;;35.00;50.50;;;;;;4970752;28;20035;-85
2023/09/09 11:28:46;;;;;;;6.15;3.00;;;35.10;49.70;;;;;;4972703;28;20391;-85
2023/09/09 11:31:13;;;;;;;5.13;2.72;;;35.20;49.70;;;;;;4972790;28;20090;-84
2023/09/09 11:33:39;;;;;;;5.38;2.80;;;35.30;49.40;;;;;;4972773;28;20054;-85
2023/09/09 11:36:05;;;;;;;3.05;2.45;;;35.40;48.90;;;;;;4972188;28;20054;-84
2023/09/09 11:38:35;;;;;;;3.83;2.70;;;35.50;49.20;;;;;;4972502;28;20054;-85
2023/09/09 11:41:00;;;;;;;;;;;35.70;49.10;;;;;;4973002;28;20127;-84
2023/09/09 11:43:26;;;;;;;4.13;3.00;;;35.90;48.70;;;;;;4972601;28;19993;-83
2023/09/09 11:45:53;;;;;;;2.65;2.45;;;36.10;48.70;;;;;;4973359;28;20069;-84
2023/09/09 11:48:19;;;;;;;3.50;2.67;;;36.20;48.60;;;;;;4977066;28;20379;-84
2023/09/09 11:50:46;;;;;;;4.13;3.20;;;36.50;48.10;;;;;;4959705;28;20546;-83
2023/09/09 11:53:12;;;;;;;4.50;2.83;;;36.70;47.20;;;;;;4977588;28;20030;-83
2023/09/09 11:55:38;;;;;;;2.58;2.38;;;36.80;47.20;;;;;;4977083;28;20031;-83
2023/09/09 11:58:07;;;;;;;3.35;2.33;;;36.90;46.70;;;;;;4960490;28;20372;-83
2023/09/09 12:00:33;;;;;;;3.63;2.72;;;37.00;46.90;;;;;;4977560;28;20395;-83
2023/09/09 12:02:59;;;;;;;5.38;3.00;;;37.10;46.30;;;;;;4977088;28;20033;-82
2023/09/09 12:05:30;;;;;;;3.63;2.80;;;37.30;47.00;;;;;;4977393;28;20038;-84
2023/09/09 12:07:59;;;;;;;2.97;2.67;;;37.40;46.10;;;;;;4974117;28;20031;-84
2023/09/09 12:10:31;;;;;;;5.07;2.67;;;37.60;45.50;;;;;;4973843;28;20053;-84
2023/09/09 12:12:57;;;;;;;5.75;2.67;;;37.70;46.00;;;;;;4976218;28;20046;-84
2023/09/09 12:15:23;;;;;;;4.15;2.90;;;37.80;45.70;;;;;;4976126;28;20679;-83
2023/09/09 12:17:49;;;;;;;3.92;2.50;;;37.80;45.30;;;;;;4976549;28;20098;-83
2023/09/09 12:20:16;;;;;;;3.30;2.95;;;37.90;45.60;;;;;;4976807;28;20142;-85
2023/09/09 12:22:49;;;;;;;4.95;2.60;;;38.00;45.20;;;;;;4976746;28;20037;-86
2023/09/09 12:25:32;;;;;;;3.10;2.55;;;38.10;44.70;;;;;;4977015;28;20066;-84
2023/09/09 12:27:58;;;;;;;4.93;2.78;;;38.10;44.70;;;;;;4976721;28;20039;-85
2023/09/09 12:30:33;;;;;;;5.47;2.83;;;38.10;44.40;;;;;;4976386;28;20398;-86
2023/09/09 12:33:13;;;;;;;6.22;2.70;;;38.00;43.90;;;;;;4976090;28;20035;-86
2023/09/09 12:35:46;;;;;;;3.55;2.53;;;38.10;44.20;;;;;;4976797;28;20050;-86
2023/09/09 12:38:14;;;;;;;6.65;2.85;;;38.10;44.80;;;;;;4975554;28;20064;-86
2023/09/09 12:40:47;;;;;;;4.10;2.60;;;38.00;44.40;;;;;;4975441;28;20030;-85
2023/09/09 12:43:13;;;;;;;3.28;2.67;;;38.00;44.10;;;;;;4975408;28;20353;-87
2023/09/09 12:45:53;;;;;;;5.20;2.80;;;38.00;44.20;;;;;;4975970;28;20102;-87
2023/09/09 12:48:20;;;;;;;3.58;2.90;;;37.90;43.70;;;;;;4977567;28;20070;-85